KSMF/SMF METAR and TAF weather

Enter ICAO airport designator
Station Type Date Time Source
KSMF METAR 2022/06/25 21:53 UTC NOAA

KSMF 252153Z 19007KT 10SM FEW060 37/08 A2983 RMK AO2 SLP101 T03720078


Station Type Date Time Source
KSMF Decoded METAR 2022/06/25 21:53 UTC NOAA

SACRAMENTO INTERNATIONAL AIRPORT, CA, United States (KSMF) 38-42N 121-36W 6M
Jun 25, 2022 - 05:53 PM EDT / 2022.06.25 2153 UTC
Wind: from the S (190 degrees) at 8 MPH (7 KT):0
Visibility: 10 mile(s):0
Sky conditions: mostly clear
Temperature: 99.0 F (37.2 C)
Heat index: 95.0 F (35.0 C):1
Dew Point: 46.0 F (7.8 C)
Relative Humidity: 16%
Pressure (altimeter): 29.83 in. Hg (1010 hPa)
ob: KSMF 252153Z 19007KT 10SM FEW060 37/08 A2983 RMK AO2 SLP101 T03720078
cycle: 22

Station Type Date Time Source
KSMF TAF 2022/06/25 18:22 UTC NOAA

TAF KSMF 251720Z 2518/2618 21007KT P6SM SKC
FM260600 16010KT P6SM SKC

Example: see airport list